KFRG/FRG METAR and TAF weather

Enter ICAO airport designator
Station Type Date Time Source
KFRG METAR 2022/10/01 07:53 UTC NOAA

KFRG 010753Z AUTO 05012G17KT 10SM OVC035 15/10 A3007 RMK AO2 SLP182 T01500100


Station Type Date Time Source
KFRG Decoded METAR 2022/10/01 07:53 UTC NOAA

FARMINGDALE REPUBLIC AIRPORT , NY, United States (KFRG) 40-44N 073-25W 21M
Oct 01, 2022 - 03:53 AM EDT / 2022.10.01 0753 UTC
Wind: from the NE (050 degrees) at 14 MPH (12 KT) gusting to 20 MPH (17 KT):0
Visibility: 10 mile(s):0
Sky conditions: overcast
Temperature: 59.0 F (15.0 C)
Dew Point: 50.0 F (10.0 C)
Relative Humidity: 72%
Pressure (altimeter): 30.07 in. Hg (1018 hPa)
ob: KFRG 010753Z AUTO 05012G17KT 10SM OVC035 15/10 A3007 RMK AO2 SLP182 T01500100
cycle: 8

Station Type Date Time Source
KFRG TAF UTC NOAA

Error!

Example: see airport list